createdAt,value
2018-08-25T00:01:10.577Z,8.47
2018-08-25T00:03:39.879Z,6.23
2018-08-25T00:06:08.524Z,5.37
2018-08-25T00:08:37.974Z,5.93
2018-08-25T00:11:07.685Z,5.70
2018-08-25T00:13:36.229Z,5.67
2018-08-25T00:16:05.903Z,4.87
2018-08-25T00:18:34.494Z,4.57
2018-08-25T00:21:03.103Z,4.30
2018-08-25T00:23:32.061Z,5.07
2018-08-25T00:26:00.635Z,4.33
2018-08-25T00:28:29.176Z,5.33
2018-08-25T00:31:03.041Z,4.53
2018-08-25T00:33:31.635Z,5.03
2018-08-25T00:36:00.191Z,6.77
2018-08-25T00:38:28.746Z,5.10
2018-08-25T00:40:57.277Z,5.53
2018-08-25T00:43:25.855Z,6.17
2018-08-25T00:45:54.448Z,7.17
2018-08-25T00:48:23.535Z,5.13
2018-08-25T00:50:52.127Z,4.80
2018-08-25T00:53:20.702Z,5.30
2018-08-25T00:55:49.259Z,4.00
2018-08-25T00:58:17.803Z,4.33
2018-08-25T01:00:46.487Z,6.83
2018-08-25T01:03:15.206Z,9.07
2018-08-25T01:05:43.809Z,5.67
2018-08-25T01:08:12.667Z,9.43
2018-08-25T01:10:41.242Z,5.70
2018-08-25T01:13:10.494Z,4.57
2018-08-25T01:15:39.092Z,7.23
2018-08-25T01:18:07.618Z,3.97
2018-08-25T01:20:36.290Z,7.13
2018-08-25T01:23:04.926Z,7.43
2018-08-25T01:25:33.667Z,5.57
2018-08-25T01:28:02.212Z,5.00
2018-08-25T01:30:30.998Z,4.30
2018-08-25T01:32:59.578Z,4.33
2018-08-25T01:35:28.066Z,7.07
2018-08-25T01:37:56.604Z,3.27
2018-08-25T01:40:25.178Z,5.87
2018-08-25T01:42:53.769Z,4.60
2018-08-25T01:45:23.283Z,3.13
2018-08-25T01:47:52.187Z,6.80
2018-08-25T01:50:20.731Z,4.57
2018-08-25T01:52:49.348Z,7.97
2018-08-25T01:55:17.929Z,3.77
2018-08-25T01:57:46.595Z,5.13
2018-08-25T02:00:15.146Z,3.70
2018-08-25T02:02:43.848Z,4.27
2018-08-25T02:05:12.592Z,3.50
2018-08-25T02:07:41.152Z,5.43
2018-08-25T02:10:10.035Z,3.57
2018-08-25T02:12:38.583Z,2.93
2018-08-25T02:15:07.132Z,6.10
2018-08-25T02:17:35.707Z,4.47
2018-08-25T02:20:04.370Z,5.00
2018-08-25T02:22:32.915Z,6.63
2018-08-25T02:25:01.507Z,3.37
2018-08-25T02:27:30.455Z,4.13
2018-08-25T02:29:59.026Z,3.55
2018-08-25T02:32:27.862Z,4.43
2018-08-25T02:34:56.386Z,4.80
2018-08-25T02:37:24.957Z,6.93
2018-08-25T02:39:53.490Z,3.20
2018-08-25T02:42:22.124Z,4.30
2018-08-25T02:44:51.667Z,4.97
2018-08-25T02:47:20.181Z,3.20
2018-08-25T02:49:48.739Z,4.07
2018-08-25T02:52:17.428Z,2.33
2018-08-25T02:54:46.288Z,3.27
2018-08-25T02:57:14.912Z,4.07
2018-08-25T02:59:43.527Z,3.70
2018-08-25T03:02:12.070Z,3.10
2018-08-25T03:04:40.628Z,3.73
2018-08-25T03:07:09.237Z,3.63
2018-08-25T03:09:37.770Z,3.73
2018-08-25T03:12:06.327Z,4.60
2018-08-25T03:14:34.895Z,2.13
2018-08-25T03:17:03.547Z,3.13
2018-08-25T03:19:32.082Z,3.40
2018-08-25T03:22:00.668Z,3.20
2018-08-25T03:24:29.268Z,2.70
2018-08-25T03:26:57.890Z,2.20
2018-08-25T03:29:26.454Z,1.57
2018-08-25T03:31:55.003Z,3.70
2018-08-25T03:34:23.658Z,4.50
2018-08-25T03:36:52.782Z,4.03
2018-08-25T03:39:21.386Z,2.50
2018-08-25T03:41:50.032Z,8.57
2018-08-25T03:44:18.551Z,6.33
2018-08-25T03:46:47.116Z,4.00
2018-08-25T03:49:15.934Z,3.63
2018-08-25T03:51:44.451Z,3.10
2018-08-25T03:54:13.367Z,3.30
2018-08-25T03:56:42.018Z,3.90
2018-08-25T03:59:10.596Z,3.07
2018-08-25T04:01:39.443Z,5.80
2018-08-25T04:04:08.095Z,5.17
2018-08-25T04:06:36.636Z,7.43
2018-08-25T04:09:08.413Z,8.37
2018-08-25T04:11:37.013Z,3.37
2018-08-25T04:14:06.069Z,4.70
2018-08-25T04:16:34.645Z,6.80
2018-08-25T04:19:03.461Z,4.33
2018-08-25T04:21:32.011Z,4.67
2018-08-25T04:24:00.629Z,4.97
2018-08-25T04:26:29.201Z,3.07
2018-08-25T04:28:57.749Z,3.77
2018-08-25T04:31:26.282Z,4.43
2018-08-25T04:33:54.853Z,3.50
2018-08-25T04:36:23.633Z,4.37
2018-08-25T04:38:52.892Z,6.60
2018-08-25T04:41:21.541Z,4.80
2018-08-25T04:43:50.517Z,3.43
2018-08-25T04:46:19.309Z,4.50
2018-08-25T04:48:47.910Z,3.37
2018-08-25T04:51:17.255Z,4.03
2018-08-25T04:53:46.564Z,4.90
2018-08-25T04:56:15.335Z,5.37
2018-08-25T04:58:44.083Z,3.43
2018-08-25T05:01:12.869Z,3.83
2018-08-25T05:03:41.529Z,2.40
2018-08-25T05:06:10.363Z,2.57
2018-08-25T05:08:39.471Z,3.87
2018-08-25T05:11:08.060Z,2.83
2018-08-25T05:13:36.619Z,4.53
2018-08-25T05:16:05.274Z,6.73
2018-08-25T05:18:34.235Z,4.43
2018-08-25T05:21:03.256Z,3.57
2018-08-25T05:23:31.870Z,5.63
2018-08-25T05:26:00.946Z,4.23
2018-08-25T05:28:30.525Z,5.00
2018-08-25T05:30:59.072Z,4.90
2018-08-25T05:33:27.914Z,2.73
2018-08-25T05:35:56.582Z,4.90
2018-08-25T05:38:25.252Z,6.10
2018-08-25T05:40:54.268Z,3.73
2018-08-25T05:43:22.840Z,3.60
2018-08-25T05:45:51.616Z,4.07
2018-08-25T05:48:20.754Z,2.83
2018-08-25T05:50:49.360Z,3.07
2018-08-25T05:53:18.498Z,4.00
2018-08-25T05:55:47.372Z,4.93
2018-08-25T05:58:16.492Z,5.57
2018-08-25T06:00:45.248Z,4.10
2018-08-25T06:03:14.196Z,3.20
2018-08-25T06:05:42.964Z,2.30
2018-08-25T06:08:11.960Z,5.70
2018-08-25T06:10:40.682Z,4.20
2018-08-25T06:13:09.392Z,3.07
2018-08-25T06:15:38.271Z,3.47
2018-08-25T06:18:06.850Z,2.40
2018-08-25T06:20:35.650Z,3.27
2018-08-25T06:23:04.349Z,2.93
2018-08-25T06:25:33.844Z,2.20
2018-08-25T06:28:02.632Z,3.30
2018-08-25T06:30:31.169Z,6.47
2018-08-25T06:33:00.064Z,3.30
2018-08-25T06:35:28.675Z,2.57
2018-08-25T06:37:57.282Z,3.07
2018-08-25T06:40:25.898Z,7.10
2018-08-25T06:42:54.633Z,3.80
2018-08-25T06:45:23.426Z,5.20
2018-08-25T06:47:52.104Z,5.33
2018-08-25T06:50:20.624Z,5.17
2018-08-25T06:52:49.465Z,3.53
2018-08-25T06:55:18.463Z,4.37
2018-08-25T06:57:48.901Z,3.27
2018-08-25T07:00:17.706Z,2.80
2018-08-25T07:02:46.715Z,2.87
2018-08-25T07:05:15.346Z,3.37
2018-08-25T07:07:44.493Z,3.53
2018-08-25T07:10:13.405Z,2.07
2018-08-25T07:12:42.255Z,3.70
2018-08-25T07:15:11.035Z,3.50
2018-08-25T07:17:39.672Z,3.27
2018-08-25T07:20:08.513Z,2.43
2018-08-25T07:22:37.220Z,4.30
2018-08-25T07:25:06.715Z,4.03
2018-08-25T07:27:35.520Z,2.67
2018-08-25T07:30:04.550Z,6.50
2018-08-25T07:32:33.278Z,4.03
2018-08-25T07:35:02.347Z,6.03
2018-08-25T07:37:31.320Z,3.07
2018-08-25T07:40:00.294Z,6.00
2018-08-25T07:42:29.126Z,3.63
2018-08-25T07:44:57.681Z,6.67
2018-08-25T07:47:26.306Z,4.30
2018-08-25T07:49:54.882Z,3.20
2018-08-25T07:52:23.778Z,3.67
2018-08-25T07:54:52.704Z,2.27
2018-08-25T07:57:21.700Z,2.97
2018-08-25T07:59:50.508Z,3.70
2018-08-25T08:02:19.170Z,3.87
2018-08-25T08:04:47.820Z,4.57
2018-08-25T08:07:16.514Z,4.33
2018-08-25T08:09:45.172Z,4.00
2018-08-25T08:12:13.873Z,3.93
2018-08-25T08:14:42.819Z,3.03
2018-08-25T08:17:12.427Z,2.80
2018-08-25T08:19:41.453Z,2.57
2018-08-25T08:22:11.457Z,2.90
2018-08-25T08:24:40.078Z,3.10
2018-08-25T08:27:08.900Z,2.90
2018-08-25T08:29:37.675Z,3.73
2018-08-25T08:32:07.000Z,4.50
2018-08-25T08:34:36.008Z,4.27
2018-08-25T08:37:04.767Z,3.50
2018-08-25T08:39:33.885Z,2.70
2018-08-25T08:42:02.949Z,4.63
2018-08-25T08:44:31.528Z,5.03
2018-08-25T08:47:01.158Z,3.93
2018-08-25T08:49:30.274Z,5.67
2018-08-25T08:51:59.133Z,2.77
2018-08-25T08:54:28.329Z,5.20
2018-08-25T08:56:57.305Z,4.30
2018-08-25T08:59:26.769Z,2.87
2018-08-25T09:01:55.512Z,4.67
2018-08-25T09:04:24.302Z,4.43
2018-08-25T09:06:52.944Z,4.47
2018-08-25T09:09:22.022Z,6.77
2018-08-25T09:11:51.268Z,4.30
2018-08-25T09:14:20.416Z,2.27
2018-08-25T09:16:49.486Z,3.50
2018-08-25T09:19:18.337Z,3.27
2018-08-25T09:21:47.138Z,6.57
2018-08-25T09:24:15.768Z,3.33
2018-08-25T09:26:45.007Z,3.13
2018-08-25T09:29:13.937Z,4.57
2018-08-25T09:31:43.080Z,5.10
2018-08-25T09:34:11.744Z,4.10
2018-08-25T09:36:40.525Z,4.20
2018-08-25T09:39:10.343Z,3.57
2018-08-25T09:41:39.381Z,2.73
2018-08-25T09:44:08.370Z,5.10
2018-08-25T09:46:37.379Z,3.50
2018-08-25T09:49:06.948Z,2.57
2018-08-25T09:51:35.950Z,6.53
2018-08-25T09:54:04.785Z,2.23
2018-08-25T09:56:33.580Z,2.97
2018-08-25T09:59:02.464Z,2.97
2018-08-25T10:01:33.187Z,4.27
2018-08-25T10:04:01.820Z,3.17
2018-08-25T10:06:30.432Z,4.33
2018-08-25T10:08:59.245Z,5.20
2018-08-25T10:11:27.993Z,4.03
2018-08-25T10:13:56.819Z,3.30
2018-08-25T10:16:25.605Z,3.33
2018-08-25T10:18:54.206Z,7.20
2018-08-25T10:21:23.818Z,5.03
2018-08-25T10:23:52.502Z,4.80
2018-08-25T10:26:21.336Z,4.93
2018-08-25T10:28:50.279Z,3.63
2018-08-25T10:31:19.106Z,3.00
2018-08-25T10:33:47.744Z,3.20
2018-08-25T10:36:16.891Z,2.67
2018-08-25T10:38:46.142Z,3.70
2018-08-25T10:41:15.012Z,2.77
2018-08-25T10:43:43.817Z,5.20
2018-08-25T10:46:12.542Z,2.50
2018-08-25T10:48:41.554Z,4.47
2018-08-25T10:51:10.836Z,5.60
2018-08-25T10:53:39.877Z,3.50
2018-08-25T10:56:08.801Z,4.47
2018-08-25T10:58:37.482Z,5.50
2018-08-25T11:01:06.484Z,2.47
2018-08-25T11:03:35.121Z,3.90
2018-08-25T11:06:04.363Z,4.73
2018-08-25T11:08:33.969Z,2.13
2018-08-25T11:11:02.934Z,5.67
2018-08-25T11:13:31.445Z,4.53
2018-08-25T11:16:00.269Z,5.30
2018-08-25T11:18:28.984Z,4.47
2018-08-25T11:20:57.829Z,2.63
2018-08-25T11:23:26.775Z,4.37
2018-08-25T11:26:57.891Z,3.33
2018-08-25T11:29:26.533Z,3.90
2018-08-25T11:31:55.469Z,3.07
2018-08-25T11:34:24.256Z,3.43
2018-08-25T11:36:53.373Z,4.43
2018-08-25T11:39:22.477Z,2.57
2018-08-25T11:41:51.433Z,3.87
2018-08-25T11:44:20.502Z,2.60
2018-08-25T11:46:49.396Z,3.47
2018-08-25T11:49:18.282Z,2.17
2018-08-25T11:51:47.423Z,2.50
2018-08-25T11:54:15.984Z,3.03
2018-08-25T11:56:44.572Z,4.20
2018-08-25T11:59:13.736Z,4.37
2018-08-25T12:01:42.460Z,1.97
2018-08-25T12:04:11.157Z,2.90
2018-08-25T12:06:40.022Z,3.30
2018-08-25T12:09:10.944Z,1.87
2018-08-25T12:11:39.952Z,2.77
2018-08-25T12:14:08.976Z,1.67
2018-08-25T12:16:37.747Z,2.70
2018-08-25T12:19:07.125Z,4.00
2018-08-25T12:21:35.684Z,3.03
2018-08-25T12:24:04.521Z,1.80
2018-08-25T12:26:33.486Z,2.93
2018-08-25T12:29:02.407Z,4.03
2018-08-25T12:31:31.005Z,2.13
2018-08-25T12:33:59.830Z,2.93
2018-08-25T12:36:28.999Z,4.33
2018-08-25T12:38:57.943Z,2.27
2018-08-25T12:41:26.975Z,2.63
2018-08-25T12:43:55.625Z,4.03
2018-08-25T12:46:25.142Z,3.00
2018-08-25T12:48:54.270Z,2.20
2018-08-25T12:51:22.926Z,2.33
2018-08-25T12:53:51.783Z,2.67
2018-08-25T12:56:20.335Z,2.17
2018-08-25T12:58:49.139Z,2.67
2018-08-25T13:01:18.071Z,3.30
2018-08-25T13:03:47.258Z,2.67
2018-08-25T13:06:16.226Z,2.97
2018-08-25T13:08:45.071Z,3.10
2018-08-25T13:11:13.732Z,2.13
2018-08-25T13:13:42.473Z,3.07
2018-08-25T13:16:12.236Z,2.10
2018-08-25T13:18:40.960Z,2.83
2018-08-25T13:21:09.610Z,2.93
2018-08-25T13:23:39.111Z,3.30
2018-08-25T13:26:07.972Z,3.07
2018-08-25T13:28:36.649Z,2.57
2018-08-25T13:31:05.562Z,4.30
2018-08-25T13:33:34.062Z,2.40
2018-08-25T13:36:02.979Z,2.50
2018-08-25T13:38:31.533Z,3.10
2018-08-25T13:41:00.544Z,3.23
2018-08-25T13:43:29.594Z,2.60
2018-08-25T13:45:58.376Z,1.57
2018-08-25T13:48:26.930Z,3.03
2018-08-25T13:50:56.217Z,4.63
2018-08-25T13:53:24.954Z,4.03
2018-08-25T13:55:53.600Z,2.57
2018-08-25T13:58:22.185Z,2.97
2018-08-25T14:00:50.967Z,5.33
2018-08-25T14:03:20.004Z,1.90
2018-08-25T14:05:48.603Z,3.73
2018-08-25T14:08:17.306Z,2.53
2018-08-25T14:10:46.031Z,2.17
2018-08-25T14:13:14.736Z,4.50
2018-08-25T14:15:43.393Z,2.70
2018-08-25T14:18:12.354Z,2.87
2018-08-25T14:20:41.368Z,3.60
2018-08-25T14:23:11.235Z,2.30
2018-08-25T14:25:40.282Z,2.73
2018-08-25T14:28:09.330Z,2.57
2018-08-25T14:30:38.103Z,3.80
2018-08-25T14:33:06.934Z,1.43
2018-08-25T14:35:35.644Z,1.83
2018-08-25T14:38:04.735Z,2.13
2018-08-25T14:40:33.643Z,3.20
2018-08-25T14:43:02.242Z,2.27
2018-08-25T14:45:30.986Z,3.77
2018-08-25T14:48:00.579Z,3.50
2018-08-25T14:50:29.651Z,4.27
2018-08-25T14:52:58.425Z,2.93
2018-08-25T14:55:27.246Z,3.53
2018-08-25T14:57:56.414Z,2.67
2018-08-25T15:00:25.051Z,2.63
2018-08-25T15:02:53.802Z,1.27
2018-08-25T15:05:22.760Z,3.00
2018-08-25T15:07:51.892Z,2.30
2018-08-25T15:10:20.929Z,2.73
2018-08-25T15:12:49.609Z,1.53
2018-08-25T15:15:18.199Z,2.43
2018-08-25T15:17:47.271Z,1.47
2018-08-25T15:20:15.973Z,2.80
2018-08-25T15:22:45.942Z,2.47
2018-08-25T15:25:14.897Z,3.50
2018-08-25T15:27:43.694Z,1.63
2018-08-25T15:30:12.821Z,4.00
2018-08-25T15:32:41.749Z,1.90
2018-08-25T15:35:10.601Z,2.33
2018-08-25T15:37:39.969Z,1.20
2018-08-25T15:40:08.947Z,3.50
2018-08-25T15:42:37.850Z,2.70
2018-08-25T15:45:06.597Z,2.43
2018-08-25T15:47:35.484Z,3.50
2018-08-25T15:50:04.120Z,4.83
2018-08-25T15:52:33.120Z,3.40
2018-08-25T15:55:02.176Z,2.77
2018-08-25T15:57:31.081Z,2.53
2018-08-25T15:59:59.842Z,2.67
2018-08-25T16:02:28.461Z,1.53
2018-08-25T16:04:58.036Z,2.00
2018-08-25T16:07:26.911Z,2.10
2018-08-25T16:09:56.591Z,2.70
2018-08-25T16:12:25.792Z,1.87
2018-08-25T16:14:54.548Z,1.87
2018-08-25T16:17:23.200Z,2.10
2018-08-25T16:19:52.112Z,1.10
2018-08-25T16:22:21.101Z,1.60
2018-08-25T16:24:50.302Z,1.53
2018-08-25T16:27:19.337Z,2.73
2018-08-25T16:29:48.256Z,2.87
2018-08-25T16:32:17.347Z,1.40
2018-08-25T16:34:46.198Z,1.50
2018-08-25T16:37:15.326Z,2.30
2018-08-25T16:39:43.966Z,1.57
2018-08-25T16:42:13.038Z,2.17
2018-08-25T16:44:42.118Z,2.00
2018-08-25T16:47:11.265Z,1.60
2018-08-25T16:49:40.762Z,3.13
2018-08-25T16:52:09.552Z,1.67
2018-08-25T16:54:38.843Z,1.53
2018-08-25T16:57:08.402Z,1.63
2018-08-25T16:59:37.170Z,1.73
2018-08-25T17:02:06.195Z,1.83
2018-08-25T17:04:35.222Z,2.43
2018-08-25T17:07:04.350Z,3.03
2018-08-25T17:09:33.095Z,2.03
2018-08-25T17:12:01.909Z,2.53
2018-08-25T17:14:31.275Z,1.77
2018-08-25T17:16:59.966Z,1.87
2018-08-25T17:19:28.778Z,1.50
2018-08-25T17:21:57.689Z,1.50
2018-08-25T17:24:26.727Z,1.17
2018-08-25T17:26:55.862Z,2.50
2018-08-25T17:29:24.667Z,2.27
2018-08-25T17:31:53.762Z,1.37
2018-08-25T17:34:23.615Z,2.07
2018-08-25T17:36:53.044Z,2.30
2018-08-25T17:39:22.102Z,2.10
2018-08-25T17:41:50.797Z,1.67
2018-08-25T17:44:19.387Z,2.07
2018-08-25T17:46:47.991Z,1.80
2018-08-25T17:49:17.122Z,1.40
2018-08-25T17:51:45.772Z,1.97
2018-08-25T17:54:14.949Z,2.23
2018-08-25T17:56:43.595Z,2.37
2018-08-25T17:59:12.677Z,2.30
2018-08-25T18:01:41.653Z,1.10
2018-08-25T18:04:11.208Z,1.80
2018-08-25T18:06:39.864Z,1.10
2018-08-25T18:09:09.079Z,1.67
2018-08-25T18:11:37.656Z,2.30
2018-08-25T18:14:06.554Z,3.13
2018-08-25T18:16:35.278Z,3.10
2018-08-25T18:19:04.024Z,2.10
2018-08-25T18:21:32.926Z,1.70
2018-08-25T18:24:01.910Z,2.00
2018-08-25T18:26:30.666Z,3.47
2018-08-25T18:28:59.466Z,3.00
2018-08-25T18:31:28.203Z,2.47
2018-08-25T18:33:56.994Z,2.77
2018-08-25T18:36:26.585Z,2.77
2018-08-25T18:38:55.176Z,2.37
2018-08-25T18:41:23.780Z,2.37
2018-08-25T18:43:53.539Z,1.70
2018-08-25T18:46:22.406Z,2.67
2018-08-25T18:48:51.374Z,2.23
2018-08-25T18:51:20.042Z,1.40
2018-08-25T18:53:48.588Z,2.27
2018-08-25T18:56:17.191Z,3.63
2018-08-25T18:58:46.006Z,2.20
2018-08-25T19:01:14.844Z,1.67
2018-08-25T19:03:43.878Z,1.67
2018-08-25T19:06:12.593Z,4.23
2018-08-25T19:08:41.417Z,2.30
2018-08-25T19:11:10.255Z,2.57
2018-08-25T19:13:38.893Z,1.77
2018-08-25T19:16:07.591Z,2.33
2018-08-25T19:18:36.682Z,4.33
2018-08-25T19:21:05.479Z,1.83
2018-08-25T19:23:35.265Z,2.80
2018-08-25T19:26:04.255Z,4.00
2018-08-25T19:28:32.915Z,4.00
2018-08-25T19:31:01.469Z,2.80
2018-08-25T19:33:30.026Z,3.43
2018-08-25T19:35:58.713Z,4.30
2018-08-25T19:38:27.293Z,3.73
2018-08-25T19:40:55.986Z,3.10
2018-08-25T19:43:24.722Z,3.00
2018-08-25T19:45:53.408Z,4.50
2018-08-25T19:48:22.309Z,2.60
2018-08-25T19:50:51.091Z,3.17
2018-08-25T19:53:19.730Z,4.10
2018-08-25T19:55:48.524Z,2.93
2018-08-25T19:58:17.805Z,2.97
2018-08-25T20:00:46.691Z,4.40
2018-08-25T20:03:15.440Z,3.20
2018-08-25T20:05:45.048Z,3.97
2018-08-25T20:08:13.716Z,5.47
2018-08-25T20:10:42.575Z,3.50
2018-08-25T20:13:11.167Z,3.83
2018-08-25T20:15:39.962Z,3.20
2018-08-25T20:18:08.756Z,3.50
2018-08-25T20:20:38.554Z,4.97
2018-08-25T20:23:07.160Z,3.50
2018-08-25T20:25:35.766Z,4.10
2018-08-25T20:28:04.574Z,6.37
2018-08-25T20:30:33.214Z,5.17
2018-08-25T20:33:01.884Z,7.53
2018-08-25T20:35:30.515Z,7.03
2018-08-25T20:37:59.199Z,9.27
2018-08-25T20:40:27.811Z,7.23
2018-08-25T20:42:56.442Z,6.87
2018-08-25T20:45:25.110Z,6.67
2018-08-25T20:47:53.691Z,6.77
2018-08-25T20:50:22.325Z,5.10
2018-08-25T20:52:50.908Z,4.47
2018-08-25T20:55:19.630Z,4.30
2018-08-25T20:57:48.359Z,4.60
2018-08-25T21:00:16.922Z,3.07
2018-08-25T21:02:45.490Z,3.37
2018-08-25T21:05:14.100Z,3.93
2018-08-25T21:07:42.667Z,4.60
2018-08-25T21:10:11.302Z,4.10
2018-08-25T21:12:40.021Z,4.20
2018-08-25T21:15:08.646Z,4.50
2018-08-25T21:17:37.415Z,6.87
2018-08-25T21:20:06.302Z,4.10
2018-08-25T21:22:34.991Z,4.43
2018-08-25T21:25:03.727Z,3.37
2018-08-25T21:27:32.339Z,3.60
2018-08-25T21:30:01.399Z,7.53
2018-08-25T21:32:30.019Z,4.93
2018-08-25T21:34:58.669Z,5.50
2018-08-25T21:37:27.326Z,4.50
2018-08-25T21:39:56.244Z,5.70
2018-08-25T21:42:25.073Z,4.43
2018-08-25T21:44:53.617Z,4.43
2018-08-25T21:47:22.431Z,4.10
2018-08-25T21:49:51.403Z,4.93
2018-08-25T21:52:20.246Z,5.37
2018-08-25T21:54:48.878Z,3.77
2018-08-25T21:57:17.505Z,3.50
2018-08-25T21:59:46.112Z,4.13
2018-08-25T22:02:18.771Z,5.63
2018-08-25T22:04:47.678Z,5.87
2018-08-25T22:07:16.268Z,5.53
2018-08-25T22:09:45.181Z,4.67
2018-08-25T22:12:13.810Z,4.47
2018-08-25T22:14:43.115Z,5.47
2018-08-25T22:17:12.038Z,3.60
2018-08-25T22:19:40.607Z,5.10
2018-08-25T22:22:09.489Z,6.17
2018-08-25T22:24:38.224Z,3.90
2018-08-25T22:27:07.080Z,5.50
2018-08-25T22:29:35.932Z,5.33
2018-08-25T22:32:04.566Z,4.73
2018-08-25T22:34:33.534Z,5.63
2018-08-25T22:37:02.234Z,6.03
2018-08-25T22:39:30.791Z,6.57
2018-08-25T22:41:59.609Z,5.93
2018-08-25T22:44:28.444Z,7.77
2018-08-25T22:46:57.004Z,7.67
2018-08-25T22:49:25.814Z,4.70
2018-08-25T22:51:54.360Z,5.83
2018-08-25T22:54:22.890Z,8.47
2018-08-25T22:56:51.469Z,7.03
2018-08-25T22:59:20.006Z,7.77
2018-08-25T23:01:48.816Z,9.07
2018-08-25T23:04:17.457Z,6.67
2018-08-25T23:06:46.606Z,8.40
2018-08-25T23:09:15.663Z,10.37
2018-08-25T23:11:44.640Z,7.50
2018-08-25T23:14:13.672Z,9.33
2018-08-25T23:16:42.433Z,11.07
2018-08-25T23:19:11.364Z,11.73
2018-08-25T23:21:39.904Z,9.87
2018-08-25T23:24:08.487Z,9.17
2018-08-25T23:26:37.061Z,11.23
2018-08-25T23:29:05.997Z,9.20
2018-08-25T23:31:34.551Z,6.67
2018-08-25T23:34:03.411Z,6.57
2018-08-25T23:36:32.275Z,7.57
2018-08-25T23:39:01.091Z,7.40
2018-08-25T23:41:29.977Z,8.60
2018-08-25T23:43:58.561Z,8.47
2018-08-25T23:46:27.710Z,6.40
2018-08-25T23:48:56.754Z,5.37
2018-08-25T23:51:25.679Z,6.13
2018-08-25T23:53:54.504Z,8.47
2018-08-25T23:56:23.087Z,7.00
2018-08-25T23:58:51.639Z,8.10
